CheckWX is a tool to help pilots better visualize weather data.  It is not intended as a substitute for an official pre-flight weather briefing.

01:49:33 UTC

KONA METAR
Winona Municipal-Max Conrad Field Airport
Winona, Minnesota, USA
Current

35 mins ago

KONA 240115Z AUTO 03004KT 3SM DZ OVC006 01/00 A2958 RMK AO2
Observed
Feb-24 @ 01:15 UTC
Wind
  • 030° at 4 KTS
Visibility
3 SM
Flight Rules
IFR
Conditions
Drizzle
Cloud Levels
  • Overcast at 600' AGL
Temperature
C / 34°F
Dewpoint
C / 32°F
Humidity
93%
Altimeter
29.58" Hg
Pressure
1001.72 hPa
Previous

54 mins ago

KONA 240056Z AUTO 06005KT 4SM -DZ OVC006 01/00 A2961 RMK AO2 LTG DSNT S
Observed
Feb-24 @ 00:56 UTC
Wind
  • 060° at 5 KTS
Visibility
4 SM
Flight Rules
IFR
Conditions
Light Drizzle
Cloud Levels
  • Overcast at 600' AGL
Temperature
C / 34°F
Dewpoint
C / 32°F
Humidity
93%
Altimeter
29.61" Hg
Pressure
1002.72 hPa
Previous

1 hour ago

KONA 240035Z AUTO 07004KT 3SM DZ OVC006 01/00 A2961 RMK AO2
Observed
Feb-24 @ 00:35 UTC
Wind
  • 070° at 4 KTS
Visibility
3 SM
Flight Rules
IFR
Conditions
Drizzle
Cloud Levels
  • Overcast at 600' AGL
Temperature
C / 34°F
Dewpoint
C / 32°F
Humidity
93%
Altimeter
29.61" Hg
Pressure
1002.72 hPa